Time;durP1;ratioP1;P1;durP2;ratioP2;P2;SDS_P1;SDS_P2;PMS_P1;PMS_P2;Temp;Humidity;BMP_temperature;BMP_pressure;BME280_temperature;BME280_humidity;BME280_pressure;Samples;Min_cycle;Max_cycle;Signal;HPM_P1;HPM_P2
2021/08/26 00:08:12;;;;;;;7.55;2.80;;;;;;;12.30;85.62;99298.84;2296042;69;20146;-74
2021/08/26 00:11:19;;;;;;;4.53;2.71;;;;;;;12.26;85.35;99294.56;2297688;69;20191;-75
2021/08/26 00:14:24;;;;;;;3.49;2.85;;;;;;;12.25;85.18;99289.38;2297530;69;20157;-74
2021/08/26 00:17:27;;;;;;;6.06;3.06;;;;;;;12.26;85.19;99283.28;2302807;66;22771;-74
2021/08/26 00:20:29;;;;;;;4.44;2.71;;;;;;;12.22;85.36;99285.09;2303576;69;20165;-74
2021/08/26 00:23:32;;;;;;;2.96;2.54;;;;;;;12.18;85.45;99287.72;2303204;69;20167;-75
2021/08/26 00:26:35;;;;;;;2.59;2.26;;;;;;;12.15;85.57;99282.56;2304099;69;20210;-74
2021/08/26 00:29:38;;;;;;;2.99;2.28;;;;;;;12.13;85.43;99287.78;2304567;69;20161;-74
2021/08/26 00:32:40;;;;;;;3.51;2.60;;;;;;;12.11;85.39;99292.16;2302040;66;20161;-75
2021/08/26 00:35:43;;;;;;;3.71;2.47;;;;;;;12.07;85.52;99285.28;2297922;69;20175;-74
2021/08/26 00:38:46;;;;;;;5.32;2.47;;;;;;;12.02;85.58;99285.31;2292679;69;20181;-75
2021/08/26 00:41:48;;;;;;;5.36;2.61;;;;;;;12.00;85.55;99284.47;2297025;69;20150;-75
2021/08/26 00:44:51;;;;;;;7.20;3.34;;;;;;;11.93;85.56;99287.16;2297106;69;20161;-75
2021/08/26 00:47:54;;;;;;;4.29;2.61;;;;;;;11.91;85.52;99291.53;2297154;67;22161;-75
2021/08/26 00:50:58;;;;;;;4.74;2.74;;;;;;;11.86;85.50;99283.78;2297040;69;20544;-75
2021/08/26 00:54:00;;;;;;;3.67;2.84;;;;;;;11.85;85.46;99276.88;2297610;69;20170;-75
2021/08/26 00:57:03;;;;;;;6.91;3.38;;;;;;;11.82;85.42;99268.22;2296600;69;20167;-74
2021/08/26 01:00:09;;;;;;;6.39;3.10;;;;;;;11.76;85.20;99263.91;2297167;69;20199;-75
2021/08/26 01:03:13;;;;;;;3.74;2.51;;;;;;;11.74;85.35;99263.06;2291866;67;20810;-75
2021/08/26 01:06:22;;;;;;;3.91;3.10;;;;;;;11.72;85.52;99257.88;2297086;69;20191;-74
2021/08/26 01:09:32;;;;;;;3.21;2.76;;;;;;;11.72;85.86;99260.50;2296941;69;20891;-74
2021/08/26 01:12:38;;;;;;;6.19;3.65;;;;;;;11.71;85.79;99261.38;2297784;69;20155;-75
2021/08/26 01:16:02;;;;;;;5.80;2.90;;;;;;;11.68;85.72;99273.56;2295475;69;20587;-76
2021/08/26 01:19:05;;;;;;;5.63;3.15;;;;;;;11.63;85.65;99263.19;2295555;69;20199;-75
2021/08/26 01:22:08;;;;;;;7.54;3.46;;;;;;;11.61;85.65;99258.88;2296169;69;20149;-75
2021/08/26 01:25:18;;;;;;;4.74;3.10;;;;;;;11.58;85.55;99253.72;2296411;69;20209;-75
2021/08/26 01:28:22;;;;;;;7.39;3.50;;;;;;;11.55;85.62;99249.41;2291954;69;20183;-76
2021/08/26 01:31:27;;;;;;;5.05;2.96;;;;;;;11.52;85.64;99248.59;2296552;69;20261;-75
2021/08/26 01:34:29;;;;;;;3.00;2.64;;;;;;;11.51;85.75;99239.94;2302217;66;21177;-75
2021/08/26 01:37:32;;;;;;;2.66;2.45;;;;;;;11.50;85.85;99240.81;2303728;69;20225;-77
2021/08/26 01:40:39;;;;;;;3.31;2.81;;;;;;;11.48;86.02;99235.59;2304659;69;20141;-76
2021/08/26 01:43:44;;;;;;;3.25;2.91;;;;;;;11.46;86.20;99229.53;2304246;69;20203;-75
2021/08/26 01:46:48;;;;;;;2.91;2.70;;;;;;;11.43;86.04;99232.19;2302295;66;22787;-75
2021/08/26 01:49:52;;;;;;;4.96;2.89;;;;;;;11.40;85.79;99226.16;2304007;69;20169;-75
2021/08/26 01:52:55;;;;;;;3.40;3.10;;;;;;;11.33;85.72;99230.56;2304200;69;20201;-75
2021/08/26 01:55:57;;;;;;;5.59;2.88;;;;;;;11.33;86.05;99232.31;2304150;69;20214;-75
2021/08/26 01:59:00;;;;;;;3.26;2.94;;;;;;;11.31;86.13;99231.44;2303847;69;20150;-75
2021/08/26 02:02:03;;;;;;;4.85;2.74;;;;;;;11.30;86.09;99233.19;2304497;67;22948;-75
2021/08/26 02:05:06;;;;;;;2.97;2.35;;;;;;;11.27;85.93;99232.34;2304389;69;20193;-77
2021/08/26 02:08:08;;;;;;;4.44;2.71;;;;;;;11.20;85.89;99234.16;2306057;69;20133;-76
2021/08/26 02:11:11;;;;;;;4.47;2.90;;;;;;;11.19;86.02;99240.25;2305841;69;20186;-75
2021/08/26 02:14:14;;;;;;;2.94;2.66;;;;;;;11.19;86.15;99242.84;2305732;69;20173;-75
2021/08/26 02:17:17;;;;;;;7.44;2.70;;;;;;;11.16;86.27;99248.06;2305082;67;21544;-75
2021/08/26 02:20:20;;;;;;;3.90;2.83;;;;;;;11.11;86.28;99250.69;2305102;69;20839;-75
2021/08/26 02:23:22;;;;;;;3.14;2.66;;;;;;;11.09;86.26;99249.84;2305979;69;20682;-74
2021/08/26 02:26:25;;;;;;;5.90;2.56;;;;;;;11.09;86.36;99241.19;2305127;69;20177;-74
2021/08/26 02:29:27;;;;;;;3.66;2.51;;;;;;;11.06;86.23;99236.03;2305224;69;20149;-75
2021/08/26 02:32:30;;;;;;;2.33;2.13;;;;;;;11.05;86.11;99240.34;2304922;67;20617;-75
2021/08/26 02:35:33;;;;;;;4.38;2.44;;;;;;;11.00;85.82;99238.69;2309777;69;20196;-76
2021/08/26 02:38:35;;;;;;;3.13;2.26;;;;;;;10.93;85.96;99234.41;2306013;69;20169;-76
2021/08/26 02:41:38;;;;;;;4.82;2.29;;;;;;;10.90;86.55;99241.34;2305303;69;20287;-75
2021/08/26 02:44:40;;;;;;;3.55;2.54;;;;;;;10.94;86.88;99233.53;2306260;69;20160;-75
2021/08/26 02:47:43;;;;;;;2.96;2.15;;;;;;;10.96;86.85;99230.06;2305886;67;20534;-75
2021/08/26 02:50:45;;;;;;;4.85;2.44;;;;;;;10.94;86.75;99228.31;2305941;69;20526;-75
2021/08/26 02:53:48;;;;;;;5.03;2.34;;;;;;;10.92;86.80;99210.16;2306507;69;20181;-75
2021/08/26 02:56:50;;;;;;;3.30;2.29;;;;;;;10.89;86.75;99205.00;2307189;69;20198;-75
2021/08/26 02:59:53;;;;;;;3.25;2.64;;;;;;;10.89;86.71;99205.84;2304434;69;20253;-75
2021/08/26 03:02:55;;;;;;;4.03;2.80;;;;;;;10.87;86.67;99204.16;2304671;66;20743;-75
2021/08/26 03:05:58;;;;;;;3.74;2.49;;;;;;;10.85;86.82;99204.16;2304255;69;20145;-75
2021/08/26 03:09:01;;;;;;;2.58;2.28;;;;;;;10.87;86.81;99211.94;2304533;69;20178;-75
2021/08/26 03:12:04;;;;;;;5.86;2.88;;;;;;;10.89;86.85;99210.19;2303403;69;20203;-75
2021/08/26 03:15:08;;;;;;;3.55;2.63;;;;;;;10.87;87.04;99199.81;2304716;69;20150;-74
2021/08/26 03:18:10;;;;;;;2.94;2.67;;;;;;;10.90;87.00;99196.31;2304047;67;20152;-75
2021/08/26 03:21:16;;;;;;;3.54;2.79;;;;;;;10.92;87.12;99188.50;2304601;69;20775;-75
2021/08/26 03:24:18;;;;;;;5.31;2.55;;;;;;;10.89;87.06;99182.47;2303929;69;20221;-75
2021/08/26 03:27:21;;;;;;;3.20;2.21;;;;;;;10.86;87.04;99179.91;2302969;69;20611;-75
2021/08/26 03:30:23;;;;;;;3.46;2.94;;;;;;;10.85;87.13;99177.34;2308605;67;23118;-75
2021/08/26 03:33:26;;;;;;;3.44;2.99;;;;;;;10.87;87.43;99175.56;2302225;69;20165;-75
2021/08/26 03:36:29;;;;;;;3.42;3.08;;;;;;;10.88;87.47;99169.50;2298447;69;20523;-74
2021/08/26 03:39:31;;;;;;;3.85;2.79;;;;;;;10.88;87.54;99177.28;2296988;69;20145;-75
2021/08/26 03:42:34;;;;;;;2.80;2.45;;;;;;;10.91;87.31;99177.25;2296413;69;20161;-74
2021/08/26 03:45:37;;;;;;;4.04;2.31;;;;;;;10.91;87.36;99179.84;2296094;67;20793;-74
2021/08/26 03:48:39;;;;;;;3.16;2.42;;;;;;;10.94;87.30;99177.22;2297913;69;20170;-75
2021/08/26 03:51:43;;;;;;;3.54;2.92;;;;;;;10.96;87.23;99169.44;2298237;69;20161;-74
2021/08/26 03:54:45;;;;;;;4.34;2.72;;;;;;;10.98;87.32;99165.97;2297151;69;20170;-75
2021/08/26 03:57:48;;;;;;;2.81;2.51;;;;;;;10.98;87.25;99165.97;2296718;69;20175;-75
2021/08/26 04:00:51;;;;;;;7.81;2.69;;;;;;;10.96;87.21;99167.72;2297161;67;20258;-75
2021/08/26 04:03:54;;;;;;;3.59;3.05;;;;;;;10.94;87.04;99171.16;2299015;69;20177;-74
2021/08/26 04:06:57;;;;;;;4.59;2.78;;;;;;;10.90;86.85;99171.22;2297390;69;20982;-75
2021/08/26 04:09:59;;;;;;;5.50;3.34;;;;;;;10.89;86.81;99176.41;2297422;69;20205;-75
2021/08/26 04:13:04;;;;;;;3.70;2.89;;;;;;;10.86;86.71;99174.72;2297173;69;20169;-75
2021/08/26 04:16:08;;;;;;;3.58;2.84;;;;;;;10.81;86.70;99176.50;2295324;67;20519;-76
2021/08/26 04:19:11;;;;;;;4.29;3.47;;;;;;;10.79;86.79;99177.41;2294442;69;20629;-75
2021/08/26 04:22:13;;;;;;;3.41;2.92;;;;;;;10.78;86.88;99184.31;2296311;69;20166;-75
2021/08/26 04:25:16;;;;;;;4.01;3.00;;;;;;;10.76;87.01;99180.84;2296266;69;20198;-74
2021/08/26 04:28:21;;;;;;;4.35;2.94;;;;;;;10.76;87.26;99178.25;2292151;69;20340;-75
2021/08/26 04:31:23;;;;;;;3.99;2.64;;;;;;;10.78;87.45;99173.06;2296895;67;20195;-75
2021/08/26 04:34:26;;;;;;;5.09;2.88;;;;;;;10.75;87.60;99166.16;2296877;69;21106;-76
2021/08/26 04:37:29;;;;;;;3.31;2.70;;;;;;;10.77;87.84;99167.03;2297137;69;20306;-75
2021/08/26 04:40:32;;;;;;;2.95;2.70;;;;;;;10.79;87.85;99162.66;2297537;69;20161;-74
2021/08/26 04:43:34;;;;;;;3.66;3.26;;;;;;;10.78;87.72;99162.69;2296898;69;20183;-75
2021/08/26 04:46:37;;;;;;;4.65;2.92;;;;;;;10.78;87.78;99163.56;2296149;67;20762;-75
2021/08/26 04:49:40;;;;;;;3.42;3.13;;;;;;;10.80;87.77;99168.72;2297380;69;20551;-75
2021/08/26 04:52:42;;;;;;;3.31;3.01;;;;;;;10.83;87.53;99163.50;2297103;69;20162;-76
2021/08/26 04:55:45;;;;;;;3.69;3.06;;;;;;;10.83;87.60;99164.34;2297312;69;20172;-75
2021/08/26 04:58:47;;;;;;;4.43;2.92;;;;;;;10.85;87.42;99161.75;2298062;69;20552;-76
2021/08/26 05:01:50;;;;;;;3.50;2.99;;;;;;;10.86;87.45;99163.47;2297610;67;20189;-75
2021/08/26 05:04:53;;;;;;;5.79;3.06;;;;;;;10.87;87.34;99158.25;2298524;69;20199;-74
2021/08/26 05:07:55;;;;;;;4.57;4.03;;;;;;;10.86;87.43;99159.13;2296206;69;20234;-75
2021/08/26 05:10:58;;;;;;;4.44;3.33;;;;;;;10.87;87.55;99158.25;2297066;69;20161;-75
2021/08/26 05:14:01;;;;;;;4.69;3.83;;;;;;;10.88;87.62;99157.38;2296012;69;20187;-75
2021/08/26 05:17:04;;;;;;;3.97;3.56;;;;;;;10.89;87.67;99155.63;2297682;67;20986;-74
2021/08/26 05:20:07;;;;;;;4.75;3.81;;;;;;;10.86;87.68;99155.66;2296785;69;20150;-75
2021/08/26 05:23:09;;;;;;;4.59;3.92;;;;;;;10.87;87.81;99152.19;2297695;69;20619;-74
2021/08/26 05:26:12;;;;;;;4.84;3.78;;;;;;;10.88;88.08;99162.56;2297268;69;20145;-74
2021/08/26 05:29:15;;;;;;;6.03;3.44;;;;;;;10.93;88.30;99162.53;2296925;69;20167;-74
2021/08/26 05:32:18;;;;;;;3.99;3.39;;;;;;;10.99;88.33;99165.06;2294496;67;20903;-74
2021/08/26 05:35:20;;;;;;;5.44;4.03;;;;;;;11.05;88.52;99165.00;2295029;69;20617;-74
2021/08/26 05:38:23;;;;;;;6.93;4.18;;;;;;;11.15;88.69;99171.84;2301114;69;20177;-74
2021/08/26 05:41:26;;;;;;;5.82;4.31;;;;;;;11.29;88.77;99178.63;2308711;69;20180;-74
2021/08/26 05:44:28;;;;;;;5.46;4.29;;;;;;;11.40;88.79;99168.97;2304416;69;20153;-74
2021/08/26 05:47:31;;;;;;;6.06;4.39;;;;;;;11.48;88.71;99177.53;2303291;67;20168;-74
2021/08/26 05:50:33;;;;;;;8.50;5.56;;;;;;;11.55;88.98;99174.00;2304545;69;20526;-74
2021/08/26 05:53:36;;;;;;;6.16;4.90;;;;;;;11.66;89.33;99173.84;2303546;69;20179;-74
2021/08/26 05:56:38;;;;;;;6.13;4.76;;;;;;;11.72;89.53;99169.44;2308301;69;20167;-74
2021/08/26 05:59:41;;;;;;;5.07;4.46;;;;;;;11.82;89.67;99179.75;2310260;69;20202;-73
2021/08/26 06:02:44;;;;;;;5.34;4.69;;;;;;;11.90;89.63;99175.34;2303558;67;28157;-73
2021/08/26 06:05:47;;;;;;;6.76;4.94;;;;;;;11.97;89.75;99171.75;2304977;69;20161;-73
2021/08/26 06:08:49;;;;;;;5.86;4.97;;;;;;;12.05;89.88;99180.34;2308050;69;20233;-74
2021/08/26 06:11:52;;;;;;;5.74;5.21;;;;;;;12.15;89.98;99176.72;2304217;69;20163;-72
2021/08/26 06:14:54;;;;;;;8.32;5.46;;;;;;;12.27;89.80;99175.69;2303063;69;20177;-72
2021/08/26 06:17:57;;;;;;;6.03;5.20;;;;;;;12.38;89.80;99178.97;2303555;66;20156;-72
2021/08/26 06:21:01;;;;;;;7.56;4.63;;;;;;;12.47;90.03;99181.44;2304091;69;20217;-72
2021/08/26 06:24:06;;;;;;;6.89;5.13;;;;;;;12.57;89.78;99180.44;2305158;69;20238;-73
2021/08/26 06:27:08;;;;;;;5.53;4.96;;;;;;;12.69;89.79;99179.34;2303917;69;20165;-71
2021/08/26 06:30:12;;;;;;;6.29;5.21;;;;;;;12.79;89.38;99178.31;2302301;69;20181;-71
2021/08/26 06:33:14;;;;;;;6.88;5.72;;;;;;;12.90;89.14;99181.59;2303184;66;20617;-71
2021/08/26 06:36:17;;;;;;;6.72;5.19;;;;;;;13.00;88.97;99171.88;2303913;69;20141;-71
2021/08/26 06:39:20;;;;;;;6.47;5.55;;;;;;;13.09;89.05;99168.22;2304848;69;20580;-71
2021/08/26 06:42:22;;;;;;;6.30;4.70;;;;;;;13.15;89.40;99176.81;2304623;69;20686;-74
2021/08/26 06:45:25;;;;;;;7.64;5.56;;;;;;;13.20;89.63;99172.41;2302819;67;21198;-73
2021/08/26 06:48:28;;;;;;;8.96;5.38;;;;;;;13.27;89.71;99170.53;2304189;69;20167;-72
2021/08/26 06:51:31;;;;;;;6.76;5.34;;;;;;;13.37;89.54;99172.09;2304102;69;20149;-73
2021/08/26 06:54:33;;;;;;;5.05;4.55;;;;;;;13.49;89.07;99168.41;2305757;69;20590;-73
2021/08/26 06:57:36;;;;;;;7.11;5.32;;;;;;;13.63;88.69;99168.09;2305237;69;20183;-73
2021/08/26 07:00:38;;;;;;;5.36;4.86;;;;;;;13.76;88.50;99167.81;2303226;67;20169;-74
2021/08/26 07:03:41;;;;;;;5.93;5.32;;;;;;;13.88;88.51;99171.94;2304489;69;20501;-73
2021/08/26 07:06:44;;;;;;;5.61;5.09;;;;;;;13.96;88.22;99164.78;2304375;69;20153;-73
2021/08/26 07:09:46;;;;;;;6.80;5.47;;;;;;;14.07;87.80;99173.25;2304693;69;20149;-73
2021/08/26 07:12:49;;;;;;;5.97;5.15;;;;;;;14.17;87.70;99176.50;2304379;69;20148;-73
2021/08/26 07:15:52;;;;;;;6.64;5.40;;;;;;;14.21;87.81;99172.94;2303161;66;21244;-73
2021/08/26 07:18:55;;;;;;;7.79;5.24;;;;;;;14.26;87.91;99172.84;2303983;69;20194;-73
2021/08/26 07:21:58;;;;;;;5.63;5.05;;;;;;;14.31;87.76;99170.97;2304834;69;20149;-74
2021/08/26 07:25:00;;;;;;;5.13;4.63;;;;;;;14.39;87.39;99161.22;2304479;69;20179;-73
2021/08/26 07:28:03;;;;;;;6.00;4.79;;;;;;;14.45;87.47;99156.72;2303586;69;20173;-73
2021/08/26 07:31:06;;;;;;;5.79;4.84;;;;;;;14.52;87.56;99167.88;2303992;66;21856;-73
2021/08/26 07:34:09;;;;;;;5.56;4.44;;;;;;;14.60;87.71;99162.50;2304605;69;20153;-72
2021/08/26 07:37:11;;;;;;;6.15;4.14;;;;;;;14.71;87.36;99163.06;2309089;69;20287;-72
2021/08/26 07:40:14;;;;;;;3.80;3.50;;;;;;;14.77;86.84;99160.31;2304476;69;20639;-72
2021/08/26 07:43:17;;;;;;;5.36;3.97;;;;;;;14.84;86.17;99158.41;2305372;69;20198;-73
2021/08/26 07:46:19;;;;;;;3.97;3.67;;;;;;;14.88;86.02;99153.03;2300365;66;340939;-75
2021/08/26 07:49:22;;;;;;;4.05;3.39;;;;;;;14.95;85.73;99159.84;2304566;69;20663;-78
2021/08/26 07:52:25;;;;;;;3.64;3.19;;;;;;;15.02;85.16;99163.16;2303920;69;20246;-74
2021/08/26 07:55:27;;;;;;;4.11;3.74;;;;;;;15.03;85.10;99162.25;2301873;69;20531;-74
2021/08/26 07:58:31;;;;;;;6.39;3.60;;;;;;;15.03;84.73;99162.25;2304795;69;20167;-73
2021/08/26 08:01:34;;;;;;;7.21;4.26;;;;;;;15.02;84.53;99161.41;2302596;66;21764;-74
2021/08/26 08:04:37;;;;;;;3.89;3.45;;;;;;;14.98;84.77;99159.78;2305728;69;20519;-73
2021/08/26 08:07:44;;;;;;;3.86;3.35;;;;;;;14.98;84.42;99164.13;2302311;69;20172;-74
2021/08/26 08:10:47;;;;;;;3.81;3.51;;;;;;;15.00;84.47;99162.34;2303563;69;20137;-74
2021/08/26 08:13:51;;;;;;;4.01;3.47;;;;;;;15.00;84.51;99157.09;2304989;69;20195;-74
2021/08/26 08:16:55;;;;;;;3.26;2.96;;;;;;;15.01;84.24;99161.44;2304219;66;21403;-74
2021/08/26 08:19:58;;;;;;;3.71;3.26;;;;;;;15.01;84.39;99157.06;2305234;69;20145;-73
2021/08/26 08:23:00;;;;;;;5.94;3.86;;;;;;;15.06;84.57;99163.03;2304051;69;20171;-74
2021/08/26 08:26:03;;;;;;;4.20;3.74;;;;;;;15.08;84.25;99160.38;2304965;69;20169;-72
2021/08/26 08:29:06;;;;;;;4.63;4.14;;;;;;;15.11;84.19;99161.16;2304231;69;20632;-72
2021/08/26 08:32:08;;;;;;;5.44;3.81;;;;;;;15.10;84.13;99163.81;2303279;67;20167;-73
2021/08/26 08:35:11;;;;;;;4.64;4.20;;;;;;;15.13;84.18;99160.28;2305018;69;20663;-72
2021/08/26 08:38:13;;;;;;;5.09;4.69;;;;;;;15.16;84.07;99173.25;2303323;69;20145;-72
2021/08/26 08:41:18;;;;;;;7.63;4.28;;;;;;;15.18;84.10;99167.09;2304818;69;20177;-73
2021/08/26 08:44:20;;;;;;;5.88;4.51;;;;;;;15.22;84.14;99170.47;2305201;69;20511;-73
2021/08/26 08:47:24;;;;;;;5.36;4.86;;;;;;;15.28;84.61;99172.94;2304255;67;21312;-73
2021/08/26 08:50:27;;;;;;;7.31;5.38;;;;;;;15.36;84.67;99169.22;2305145;69;20145;-74
2021/08/26 08:53:30;;;;;;;6.53;5.14;;;;;;;15.36;84.81;99174.44;2303462;69;20173;-74
2021/08/26 08:56:33;;;;;;;6.72;5.56;;;;;;;15.38;84.77;99170.00;2305876;69;20165;-74
2021/08/26 08:59:36;;;;;;;5.65;5.15;;;;;;;15.42;84.93;99171.63;2302197;69;20211;-74
2021/08/26 09:02:39;;;;;;;5.59;5.09;;;;;;;15.48;84.88;99170.63;2301582;67;24434;-74
2021/08/26 09:05:50;;;;;;;6.06;5.30;;;;;;;15.49;84.70;99174.97;2302766;69;20617;-74
2021/08/26 09:09:04;;;;;;;6.31;5.79;;;;;;;15.50;85.13;99171.44;2303509;69;20199;-74
2021/08/26 09:12:07;;;;;;;5.57;5.07;;;;;;;15.56;85.52;99168.66;2303498;69;20185;-75
2021/08/26 09:15:19;;;;;;;6.47;5.03;;;;;;;15.68;86.21;99170.09;2302647;69;20905;-74
2021/08/26 09:18:22;;;;;;;6.75;5.06;;;;;;;15.87;86.33;99173.03;2302547;67;21369;-74
2021/08/26 09:21:37;;;;;;;6.28;4.99;;;;;;;16.09;85.97;99168.88;2307731;69;20145;-74
2021/08/26 09:24:47;;;;;;;5.29;4.32;;;;;;;16.32;85.86;99165.53;2303150;69;20813;-75
2021/08/26 09:27:50;;;;;;;4.69;4.20;;;;;;;16.58;84.86;99160.34;2303702;69;20710;-75
2021/08/26 09:31:10;;;;;;;3.86;3.44;;;;;;;16.87;83.29;99163.78;2302549;67;24887;-75
2021/08/26 09:34:18;;;;;;;3.30;3.10;;;;;;;17.36;82.03;99155.06;2299942;69;20209;-75
2021/08/26 09:37:21;;;;;;;4.60;2.53;;;;;;;18.10;81.11;99155.84;2296032;69;20130;-75
2021/08/26 09:40:31;;;;;;;2.71;1.86;;;;;;;18.79;77.93;99161.88;2297633;69;20173;-75
2021/08/26 09:43:34;;;;;;;2.97;1.54;;;;;;;19.26;73.35;99156.38;2298548;69;20145;-75
2021/08/26 09:46:37;;;;;;;3.58;1.52;;;;;;;19.64;70.75;99157.34;2296968;69;20463;-76
2021/08/26 09:49:40;;;;;;;3.90;1.51;;;;;;;19.90;68.93;99157.00;2299747;69;20437;-75
2021/08/26 09:52:52;;;;;;;1.80;1.11;;;;;;;20.08;67.44;99160.56;2298384;69;20158;-74
2021/08/26 09:56:06;;;;;;;2.24;1.04;;;;;;;19.96;65.22;99158.50;2298577;69;20154;-74
2021/08/26 09:59:08;;;;;;;1.69;0.98;;;;;;;19.86;64.56;99154.56;2296453;69;20916;-75
2021/08/26 10:02:12;;;;;;;2.51;0.86;;;;;;;19.76;63.96;99153.31;2297672;67;20287;-74
2021/08/26 10:05:16;;;;;;;1.73;1.00;;;;;;;19.84;61.81;99159.91;2296689;69;20150;-74
2021/08/26 10:08:18;;;;;;;2.39;1.38;;;;;;;20.10;61.06;99156.06;2298878;69;20688;-75
2021/08/26 10:11:21;;;;;;;2.80;1.46;;;;;;;20.25;56.47;99159.75;2297818;69;20154;-75
2021/08/26 10:14:25;;;;;;;4.01;1.23;;;;;;;20.66;57.75;99164.88;2298411;69;21210;-74
2021/08/26 10:17:29;;;;;;;2.60;1.65;;;;;;;20.67;54.00;99156.88;2296022;67;21437;-74
2021/08/26 10:20:32;;;;;;;6.30;1.34;;;;;;;20.78;52.71;99158.97;2297037;69;20282;-77
2021/08/26 10:23:38;;;;;;;4.31;1.65;;;;;;;20.80;52.17;99155.31;2298221;69;20150;-77
2021/08/26 10:26:47;;;;;;;2.49;1.35;;;;;;;20.98;52.21;99152.69;2297598;69;20157;-74
2021/08/26 10:29:50;;;;;;;2.19;1.14;;;;;;;21.23;51.31;99145.25;2296329;69;20215;-73
2021/08/26 10:33:11;;;;;;;2.26;1.13;;;;;;;21.64;51.01;99148.38;2296250;67;20432;-74
2021/08/26 10:36:15;;;;;;;3.00;1.31;;;;;;;21.78;48.60;99155.56;2296398;69;20166;-74
2021/08/26 10:39:29;;;;;;;4.47;1.33;;;;;;;21.61;47.36;99163.53;2297214;69;20149;-73
2021/08/26 10:42:40;;;;;;;3.33;1.44;;;;;;;21.47;47.81;99151.06;2296509;69;20153;-74
2021/08/26 10:45:51;;;;;;;4.82;1.60;;;;;;;21.41;48.41;99165.44;2296634;67;23149;-73
2021/08/26 10:49:00;;;;;;;5.91;1.59;;;;;;;21.16;45.99;99164.97;2297518;69;20269;-73
2021/08/26 10:52:03;;;;;;;3.55;1.64;;;;;;;21.04;46.58;99155.91;2296967;69;20165;-73
2021/08/26 10:55:06;;;;;;;2.60;1.50;;;;;;;20.97;46.27;99153.63;2296364;69;20146;-74
2021/08/26 10:58:20;;;;;;;2.90;1.35;;;;;;;20.94;47.24;99156.44;2300509;69;20238;-73
2021/08/26 11:01:44;;;;;;;4.06;1.50;;;;;;;20.95;47.42;99161.63;2296523;67;21067;-74
2021/08/26 11:04:47;;;;;;;2.21;1.49;;;;;;;21.10;49.44;99160.00;2297806;69;20146;-74
2021/08/26 11:07:50;;;;;;;3.04;1.61;;;;;;;21.09;48.22;99145.94;2296638;69;20138;-74
2021/08/26 11:10:52;;;;;;;7.35;2.20;;;;;;;21.15;49.39;99155.31;2296770;69;20539;-74
2021/08/26 11:14:18;;;;;;;1.73;1.27;;;;;;;21.50;47.50;99152.66;2297456;69;20201;-74
2021/08/26 11:17:26;;;;;;;2.50;1.48;;;;;;;21.92;45.94;99154.81;2297343;66;21189;-73
2021/08/26 11:20:31;;;;;;;3.44;1.29;;;;;;;21.98;43.79;99157.97;2297593;69;20203;-73
2021/08/26 11:23:46;;;;;;;4.03;1.73;;;;;;;21.71;44.60;99149.72;2296807;69;20259;-73
2021/08/26 11:27:04;;;;;;;1.75;1.33;;;;;;;21.46;46.31;99149.34;2297316;69;20153;-74
2021/08/26 11:30:23;;;;;;;2.33;1.10;;;;;;;21.44;47.53;99151.22;2297682;69;20179;-75
2021/08/26 11:33:27;;;;;;;3.24;1.44;;;;;;;21.80;47.79;99158.97;2300940;69;20499;-75
2021/08/26 11:36:29;;;;;;;2.45;1.16;;;;;;;22.03;46.26;99148.00;2305608;69;20208;-76
2021/08/26 11:39:37;;;;;;;3.65;1.52;;;;;;;22.05;45.54;99136.50;2305134;69;20156;-76
2021/08/26 11:42:44;;;;;;;3.39;1.43;;;;;;;22.05;46.17;99147.94;2306124;69;20195;-76
2021/08/26 11:45:46;;;;;;;2.56;1.36;;;;;;;22.12;46.60;99143.19;2304254;67;20827;-75
2021/08/26 11:48:53;;;;;;;5.00;1.49;;;;;;;22.37;45.54;99143.50;2306109;69;20173;-75
2021/08/26 11:52:04;;;;;;;6.26;1.48;;;;;;;22.68;45.16;99136.47;2305473;69;20170;-75
2021/08/26 11:55:07;;;;;;;4.97;1.46;;;;;;;23.07;42.52;99141.25;2310038;69;20149;-75
2021/08/26 11:58:12;;;;;;;2.64;1.54;;;;;;;23.03;41.83;99139.72;2305749;69;20153;-75
2021/08/26 12:01:21;;;;;;;3.71;1.54;;;;;;;22.73;40.81;99150.28;2304732;69;20170;-75
2021/08/26 12:04:34;;;;;;;3.72;1.29;;;;;;;22.50;41.65;99138.38;2304343;69;20256;-75
2021/08/26 12:07:39;;;;;;;2.74;1.33;;;;;;;22.48;43.45;99142.91;2302228;69;20157;-75
2021/08/26 12:10:47;;;;;;;3.25;1.17;;;;;;;22.44;43.71;99134.28;2304099;69;20726;-75
2021/08/26 12:13:50;;;;;;;1.99;1.06;;;;;;;22.24;42.76;99134.53;2301919;69;20178;-75
2021/08/26 12:16:52;;;;;;;5.13;1.44;;;;;;;22.09;44.02;99131.00;2302762;66;26594;-75
2021/08/26 12:19:56;;;;;;;3.53;1.40;;;;;;;22.08;44.36;99133.69;2301758;69;20178;-74
2021/08/26 12:22:59;;;;;;;6.31;1.67;;;;;;;21.89;44.70;99131.16;2302554;69;20191;-74
2021/08/26 12:26:07;;;;;;;2.53;1.36;;;;;;;22.08;46.16;99123.09;2303305;69;20172;-75
2021/08/26 12:29:09;;;;;;;3.11;1.40;;;;;;;22.52;46.95;99125.91;2303025;69;20179;-74
2021/08/26 12:32:31;;;;;;;2.75;1.16;;;;;;;22.89;43.36;99129.94;2303104;67;21971;-74
2021/08/26 12:35:56;;;;;;;2.33;1.39;;;;;;;23.22;43.03;99132.38;2298278;69;20167;-73
2021/08/26 12:39:26;;;;;;;5.61;1.56;;;;;;;23.43;43.39;99132.88;2298106;69;20153;-72
2021/08/26 12:42:29;;;;;;;3.28;1.89;;;;;;;23.15;40.92;99128.38;2297568;69;20253;-73
2021/08/26 12:45:34;;;;;;;3.69;1.20;;;;;;;23.18;40.22;99125.56;2293206;67;20233;-74
2021/08/26 12:48:39;;;;;;;4.51;1.16;;;;;;;23.34;42.13;99123.69;2297298;69;20182;-74
2021/08/26 12:51:53;;;;;;;3.35;1.27;;;;;;;23.68;41.04;99119.81;2298123;69;20999;-74
2021/08/26 12:54:57;;;;;;;3.09;1.30;;;;;;;23.95;40.17;99125.22;2296810;69;20789;-75
2021/08/26 12:58:11;;;;;;;2.90;1.05;;;;;;;23.90;38.66;99110.53;2297378;69;20153;-74
2021/08/26 13:01:24;;;;;;;4.34;1.44;;;;;;;23.52;39.42;99124.38;2297505;67;20154;-76
2021/08/26 13:04:27;;;;;;;3.65;1.10;;;;;;;23.30;40.29;99119.50;2297469;69;20150;-75
2021/08/26 13:07:31;;;;;;;3.95;1.50;;;;;;;23.08;40.44;99124.41;2297608;69;20149;-75
2021/08/26 13:10:34;;;;;;;3.14;1.11;;;;;;;22.74;40.50;99126.34;2292710;69;20983;-74
2021/08/26 13:13:36;;;;;;;4.03;1.56;;;;;;;22.50;40.93;99119.84;2296983;69;20885;-74
2021/08/26 13:16:39;;;;;;;3.39;1.34;;;;;;;22.21;42.11;99126.78;2295772;67;20644;-74
2021/08/26 13:19:44;;;;;;;2.69;1.23;;;;;;;22.00;42.80;99123.50;2297550;69;20265;-75
2021/08/26 13:22:47;;;;;;;4.30;0.99;;;;;;;21.86;42.75;99118.13;2296312;69;20226;-74
2021/08/26 13:25:50;;;;;;;2.20;1.11;;;;;;;21.77;44.47;99123.94;2295838;69;20538;-74
2021/08/26 13:28:53;;;;;;;2.61;1.25;;;;;;;21.67;44.35;99116.50;2296391;69;20169;-73
2021/08/26 13:31:56;;;;;;;3.88;1.50;;;;;;;21.63;45.37;99111.47;2295394;67;24447;-74
2021/08/26 13:34:59;;;;;;;3.95;1.30;;;;;;;21.54;45.59;99117.22;2302467;69;20908;-74
2021/08/26 13:38:01;;;;;;;3.76;1.11;;;;;;;21.58;46.26;99111.72;2307481;69;20285;-75
2021/08/26 13:41:05;;;;;;;3.80;1.30;;;;;;;21.98;46.07;99114.81;2302847;69;20182;-74
2021/08/26 13:44:07;;;;;;;4.56;1.20;;;;;;;22.47;44.15;99104.16;2302149;69;20161;-73
2021/08/26 13:47:10;;;;;;;5.68;1.17;;;;;;;22.68;42.33;99102.91;2301559;67;25210;-72
2021/08/26 13:50:12;;;;;;;4.57;0.94;;;;;;;22.63;41.80;99112.06;2303891;69;20198;-72
2021/08/26 13:53:15;;;;;;;3.79;1.31;;;;;;;22.42;42.92;99109.69;2302802;69;20202;-73
2021/08/26 13:56:18;;;;;;;3.79;1.21;;;;;;;22.19;43.54;99116.28;2301526;69;20170;-73
2021/08/26 13:59:21;;;;;;;2.69;1.06;;;;;;;22.13;44.37;99116.66;2302525;69;20164;-73
2021/08/26 14:02:23;;;;;;;4.47;1.11;;;;;;;22.09;42.74;99114.28;2299554;67;21306;-72
2021/08/26 14:05:28;;;;;;;4.44;0.90;;;;;;;21.96;42.87;99117.56;2301445;69;20172;-73
2021/08/26 14:08:31;;;;;;;2.35;0.90;;;;;;;21.87;44.29;99117.19;2302801;69;20181;-73
2021/08/26 14:11:33;;;;;;;2.17;0.75;;;;;;;21.73;43.89;99120.59;2302485;69;20295;-73
2021/08/26 14:14:36;;;;;;;3.83;0.90;;;;;;;21.59;44.24;99126.63;2302954;69;20669;-73
2021/08/26 14:17:38;;;;;;;5.85;1.17;;;;;;;21.41;43.97;99119.69;2301816;67;23194;-73
2021/08/26 14:20:42;;;;;;;3.92;0.96;;;;;;;21.26;45.80;99115.22;2303817;69;20137;-73
2021/08/26 14:23:44;;;;;;;4.24;0.90;;;;;;;21.06;43.80;99117.06;2304716;69;21218;-73
2021/08/26 14:26:47;;;;;;;4.43;0.90;;;;;;;21.00;45.24;99101.53;2304423;69;20971;-74
2021/08/26 14:29:49;;;;;;;6.38;1.00;;;;;;;20.98;44.11;99108.66;2304578;69;20164;-73
2021/08/26 14:32:52;;;;;;;1.94;0.75;;;;;;;20.95;43.56;99115.91;2304174;67;21948;-75
2021/08/26 14:35:55;;;;;;;3.94;1.10;;;;;;;20.93;44.79;99115.13;2295842;69;20203;-73